Pass Lake, Canada
Current Conditions -  °F | °C
As of 8:00 PM on Monday 20 Oct 2014 (Local Time) from CYQT Reporting Station
Scattered Clouds Scattered Clouds  
Wind Chill: 41°   Ceiling: Unl
Heat Index: 41°   Visibility: 15mi
Dew Point: 36°   Wind: 2mph
Humidity: 81%   Direction: NA
Pressure: 30.09"   Gusts: NA
Location:  48.57°N, 88.73°W
Report Text: CYQT 210000Z VRB02KT 15SM SCT028 05/02 A3009 RMK SC4 SLP197
Loading
Personal Weather Stations






























Interactive Weather Map
Tropical Storm Tracking
New forecast layout! Learn more

10-Day Weather Forecast

Advertisements
Track Severe Weather on mobile